Time;durP1;ratioP1;P1;durP2;ratioP2;P2;SDS_P1;SDS_P2;PMS_P1;PMS_P2;Temp;Humidity;BMP_temperature;BMP_pressure;BME280_temperature;BME280_humidity;BME280_pressure;Samples;Min_cycle;Max_cycle;Signal;HPM_P1;HPM_P2
2021/09/16 00:01:34;;;;;;;6.78;5.25;;;18.70;86.70;;;17.50;96.64;95917.69;4934024;29;20078;-64
2021/09/16 00:04:00;;;;;;;7.22;4.90;;;18.70;86.70;;;17.53;96.67;95917.19;4932668;29;20039;-63
2021/09/16 00:06:25;;;;;;;7.85;5.03;;;18.80;86.50;;;17.52;97.13;95918.25;4943027;28;20050;-64
2021/09/16 00:08:51;;;;;;;8.02;4.90;;;18.70;86.50;;;17.52;96.83;95917.44;4935717;29;20125;-64
2021/09/16 00:11:17;;;;;;;10.48;5.30;;;18.70;86.80;;;17.52;96.95;95920.91;4951281;29;20071;-64
2021/09/16 00:13:43;;;;;;;9.82;5.18;;;18.70;86.70;;;17.49;96.63;95910.75;4951091;29;20039;-63
2021/09/16 00:16:08;;;;;;;9.23;5.53;;;18.70;86.80;;;17.50;96.34;95912.38;4932093;29;20490;-63
2021/09/16 00:18:34;;;;;;;6.28;4.97;;;18.70;86.90;;;17.50;97.50;95914.22;4940437;29;20027;-64
2021/09/16 00:21:00;;;;;;;6.93;4.97;;;18.70;86.70;;;17.46;96.89;95916.53;4951153;28;20430;-63
2021/09/16 00:23:25;;;;;;;11.02;5.40;;;18.60;87.10;;;17.42;96.78;95918.84;4951159;29;20110;-63
2021/09/16 00:25:51;;;;;;;8.50;4.97;;;18.60;87.40;;;17.41;97.05;95921.72;4932085;29;20043;-63
2021/09/16 00:28:17;;;;;;;8.73;4.68;;;18.50;87.50;;;17.38;97.11;95924.88;4932313;29;20047;-63
2021/09/16 00:30:43;;;;;;;7.88;4.90;;;18.50;87.60;;;17.36;97.30;95926.97;4929318;29;20031;-65
2021/09/16 00:33:08;;;;;;;6.95;5.00;;;18.50;87.60;;;17.34;98.10;95926.38;4950950;29;20043;-63
2021/09/16 00:35:34;;;;;;;12.10;5.15;;;18.40;87.70;;;17.30;98.31;95914.63;4932387;29;20039;-63
2021/09/16 00:38:00;;;;;;;6.55;5.05;;;18.40;87.70;;;17.29;98.50;95918.31;4935222;29;20039;-63
2021/09/16 00:40:25;;;;;;;7.68;4.97;;;18.50;87.80;;;17.25;98.45;95914.53;4951969;28;20118;-63
2021/09/16 00:42:51;;;;;;;8.93;5.28;;;18.40;88.10;;;17.21;98.61;95916.03;4933638;29;20111;-63
2021/09/16 00:45:17;;;;;;;8.35;4.95;;;18.30;88.10;;;17.22;98.77;95921.13;4935639;29;20043;-63
2021/09/16 00:47:48;;;;;;;9.38;5.03;;;18.40;88.00;;;17.24;98.74;95907.59;4950861;29;20058;-64
2021/09/16 00:50:16;;;;;;;7.07;4.70;;;18.50;87.70;;;17.26;98.16;95905.50;4952307;28;20040;-63
2021/09/16 00:52:42;;;;;;;8.88;5.40;;;18.60;87.50;;;17.25;98.34;95895.91;4950634;29;20027;-63
2021/09/16 00:55:10;;;;;;;7.25;4.65;;;18.50;87.60;;;17.28;98.69;95892.78;4935440;29;20097;-64
2021/09/16 00:57:37;;;;;;;6.00;4.80;;;18.60;87.50;;;17.31;99.00;95887.00;4950422;28;20047;-63
2021/09/16 01:00:05;;;;;;;9.38;5.15;;;18.60;87.40;;;17.34;98.24;95894.50;4919190;29;20105;-64
2021/09/16 01:02:31;;;;;;;7.90;4.55;;;18.60;87.30;;;17.36;99.01;95889.75;4949957;28;20110;-64
2021/09/16 01:04:57;;;;;;;8.07;4.50;;;18.70;87.20;;;17.38;98.19;95892.97;4933445;29;20040;-64
2021/09/16 01:07:22;;;;;;;9.30;4.90;;;18.70;86.80;;;17.38;98.22;95899.09;4950313;28;20035;-64
2021/09/16 01:09:48;;;;;;;5.47;4.40;;;18.70;86.80;;;17.39;97.98;95895.38;4955189;28;20581;-64
2021/09/16 01:12:14;;;;;;;8.75;4.32;;;18.70;86.80;;;17.39;98.41;95899.91;4949900;28;20023;-64
2021/09/16 01:14:40;;;;;;;7.03;4.88;;;18.60;86.60;;;17.36;97.46;95911.00;4943945;28;20054;-64
2021/09/16 01:17:06;;;;;;;9.13;5.50;;;18.60;86.70;;;17.31;97.84;95911.72;4947632;29;20050;-64
2021/09/16 01:19:31;;;;;;;9.18;5.13;;;18.50;87.00;;;17.26;97.88;95910.81;4931765;29;20503;-64
2021/09/16 01:21:57;;;;;;;8.15;5.85;;;18.50;87.40;;;17.26;98.34;95906.31;4933804;29;20043;-64
2021/09/16 01:24:23;;;;;;;9.43;5.57;;;18.60;87.20;;;17.27;98.56;95909.78;4951173;28;20075;-63
2021/09/16 01:26:49;;;;;;;7.53;5.45;;;18.60;87.00;;;17.24;98.43;95912.91;4950653;28;20159;-63
2021/09/16 01:29:14;;;;;;;9.30;5.47;;;18.40;87.10;;;17.20;97.84;95912.56;4931658;29;20484;-64
2021/09/16 01:31:49;;;;;;;8.25;5.88;;;18.40;87.30;;;17.18;98.86;95913.81;4921615;29;20036;-63
2021/09/16 01:34:16;;;;;;;7.20;5.32;;;18.30;87.20;;;17.13;98.01;95918.00;4933809;28;20043;-63
2021/09/16 01:36:42;;;;;;;9.02;5.72;;;18.30;87.40;;;17.12;98.40;95921.69;4933079;29;20057;-63
2021/09/16 01:39:11;;;;;;;8.88;5.00;;;18.30;87.40;;;17.11;98.72;95927.25;4933108;29;20035;-64
2021/09/16 01:41:37;;;;;;;8.32;5.10;;;18.40;87.30;;;17.10;98.43;95926.44;4931272;29;20062;-63
2021/09/16 01:44:03;;;;;;;10.00;5.47;;;18.30;87.30;;;17.10;98.36;95918.47;4928814;29;20111;-63
2021/09/16 01:46:29;;;;;;;6.05;4.97;;;18.30;87.40;;;17.08;98.18;95919.75;4950107;28;20035;-64
2021/09/16 01:48:57;;;;;;;7.47;5.38;;;18.30;87.50;;;17.08;98.44;95909.91;4933613;29;20031;-64
2021/09/16 01:51:23;;;;;;;8.43;5.32;;;18.40;87.40;;;17.07;98.85;95908.31;4930595;29;20118;-63
2021/09/16 01:53:49;;;;;;;8.40;5.10;;;18.40;87.20;;;17.06;98.73;95904.03;4903072;29;20075;-63
2021/09/16 01:56:14;;;;;;;8.40;4.90;;;18.30;87.40;;;17.07;98.34;95896.88;4941824;28;20145;-63
2021/09/16 01:58:40;;;;;;;9.48;5.57;;;18.30;87.30;;;17.07;98.36;95904.84;4949628;29;20395;-63
2021/09/16 02:01:06;;;;;;;7.75;5.07;;;18.30;87.20;;;17.04;98.03;95900.81;4949811;29;20506;-63
2021/09/16 02:03:32;;;;;;;9.60;5.53;;;18.30;87.30;;;17.05;98.53;95894.44;4933655;29;20122;-63
2021/09/16 02:05:58;;;;;;;6.97;5.32;;;18.40;87.20;;;17.05;98.36;95891.78;4950998;28;20057;-63
2021/09/16 02:08:24;;;;;;;7.03;5.13;;;18.40;87.00;;;17.05;98.75;95894.44;4934878;28;20031;-63
2021/09/16 02:10:50;;;;;;;8.48;5.43;;;18.30;86.90;;;17.02;97.99;95900.25;4933844;29;20042;-63
2021/09/16 02:13:15;;;;;;;7.60;5.40;;;18.30;86.90;;;17.00;98.20;95902.31;4943822;28;20425;-63
2021/09/16 02:15:41;;;;;;;12.10;5.95;;;18.30;87.00;;;16.96;98.82;95898.50;4969254;28;20082;-63
2021/09/16 02:18:07;;;;;;;7.30;5.47;;;18.20;87.00;;;16.92;98.18;95897.34;4921631;28;20047;-63
2021/09/16 02:20:33;;;;;;;7.85;5.13;;;18.10;87.40;;;16.90;98.52;95896.78;4934776;29;20096;-63
2021/09/16 02:22:58;;;;;;;8.05;6.45;;;18.10;87.40;;;16.88;98.28;95896.22;4929811;29;20043;-63
2021/09/16 02:25:24;;;;;;;12.18;7.63;;;18.20;87.30;;;16.88;98.70;95885.59;4953497;28;20059;-63
2021/09/16 02:27:50;;;;;;;12.52;10.95;;;18.10;87.30;;;16.87;98.36;95888.47;4937362;29;20031;-63
2021/09/16 02:30:16;;;;;;;13.80;8.18;;;18.20;87.20;;;16.87;99.18;95881.31;4954812;28;20038;-63
2021/09/16 02:32:41;;;;;;;14.77;11.45;;;18.20;87.30;;;16.86;99.04;95878.88;4952840;29;20031;-63
2021/09/16 02:35:08;;;;;;;30.08;20.40;;;18.20;87.10;;;16.87;98.60;95888.47;4969498;28;20391;-63
2021/09/16 02:37:33;;;;;;;24.42;21.35;;;18.20;86.90;;;16.87;98.72;95891.13;4935216;28;20450;-63
2021/09/16 02:39:59;;;;;;;30.88;20.92;;;18.20;86.80;;;16.87;98.55;95886.63;4952936;29;20027;-63
2021/09/16 02:42:25;;;;;;;22.17;19.75;;;18.20;86.80;;;16.86;98.21;95887.66;4952769;28;20090;-63
2021/09/16 02:44:50;;;;;;;16.23;11.05;;;18.20;86.90;;;16.87;98.74;95883.97;4952741;28;20071;-63
2021/09/16 02:47:16;;;;;;;17.17;13.77;;;18.20;86.70;;;16.85;98.64;95878.09;4950779;28;20107;-63
2021/09/16 02:49:42;;;;;;;22.35;17.45;;;18.20;86.70;;;16.85;98.03;95878.09;4949662;28;20123;-66
2021/09/16 02:52:08;;;;;;;11.77;8.98;;;18.20;86.80;;;16.86;99.21;95889.50;4926528;28;20133;-64
2021/09/16 02:54:33;;;;;;;12.05;7.35;;;18.20;86.60;;;16.86;98.44;95895.63;4949124;29;20032;-63
2021/09/16 02:56:59;;;;;;;6.28;5.65;;;18.20;86.60;;;16.84;99.11;95897.72;4957530;28;20156;-63
2021/09/16 02:59:25;;;;;;;7.65;5.70;;;18.10;86.80;;;16.83;98.40;95896.91;4935312;29;20368;-63
2021/09/16 03:01:50;;;;;;;8.55;6.10;;;18.10;87.10;;;16.84;98.52;95897.72;4949109;29;20043;-63
2021/09/16 03:04:16;;;;;;;6.82;5.53;;;18.10;87.10;;;16.84;98.49;95897.72;4953640;28;20506;-63
2021/09/16 03:06:42;;;;;;;9.88;5.40;;;18.10;87.00;;;16.82;98.37;95889.19;4968944;28;20031;-63
2021/09/16 03:09:07;;;;;;;6.90;5.70;;;18.10;87.10;;;16.81;98.72;95887.56;4936000;29;20166;-63
2021/09/16 03:11:33;;;;;;;9.93;5.88;;;18.10;87.10;;;16.81;98.63;95882.25;4949314;29;20043;-63
2021/09/16 03:13:59;;;;;;;8.32;5.20;;;18.10;87.00;;;16.79;98.54;95881.69;4922635;29;20051;-63
2021/09/16 03:16:25;;;;;;;9.57;5.75;;;18.20;86.90;;;16.79;99.00;95879.81;4952432;28;20094;-63
2021/09/16 03:18:50;;;;;;;11.70;5.65;;;18.10;87.00;;;16.78;98.50;95883.53;4967449;28;20455;-63
2021/09/16 03:21:16;;;;;;;10.70;5.63;;;18.10;86.90;;;16.80;99.02;95883.28;4952443;28;20546;-63
2021/09/16 03:23:42;;;;;;;10.10;5.65;;;18.10;86.80;;;16.81;99.17;95882.25;4933256;29;20035;-63
2021/09/16 03:26:08;;;;;;;6.00;5.05;;;18.20;86.90;;;16.82;98.88;95883.88;4917086;29;20384;-63
2021/09/16 03:28:37;;;;;;;8.75;5.68;;;18.20;86.90;;;16.82;98.85;95876.69;4931372;29;20062;-63
2021/09/16 03:31:03;;;;;;;8.88;6.10;;;18.20;86.90;;;16.83;99.20;95874.84;4936630;29;20047;-63
2021/09/16 03:33:29;;;;;;;8.65;5.43;;;18.20;87.00;;;16.84;99.15;95884.44;4933139;29;20036;-63
2021/09/16 03:35:56;;;;;;;11.07;5.90;;;18.20;86.90;;;16.83;98.88;95885.47;4901837;29;20277;-64
2021/09/16 03:38:21;;;;;;;8.00;5.47;;;18.10;87.10;;;16.82;99.34;95895.28;4932372;28;20455;-63
2021/09/16 03:40:47;;;;;;;13.52;5.45;;;18.10;87.10;;;16.84;99.40;95892.41;4936190;29;20666;-64
2021/09/16 03:43:13;;;;;;;10.10;5.55;;;18.20;87.10;;;16.85;99.14;95891.38;4936200;29;20514;-64
2021/09/16 03:45:39;;;;;;;5.60;5.07;;;18.20;86.90;;;16.86;99.29;95890.31;4952283;29;20039;-64
2021/09/16 03:48:04;;;;;;;7.45;5.70;;;18.20;87.00;;;16.87;98.90;95897.25;4944712;29;20079;-64
2021/09/16 03:50:30;;;;;;;8.32;5.88;;;18.20;86.90;;;16.84;98.73;95885.25;4917121;28;20171;-64
2021/09/16 03:52:56;;;;;;;11.05;5.47;;;18.20;87.10;;;16.82;99.04;95883.88;4930516;29;20080;-64
2021/09/16 03:55:22;;;;;;;10.27;5.85;;;18.10;87.30;;;16.80;99.48;95881.44;4901187;29;20411;-66
2021/09/16 03:57:48;;;;;;;10.35;5.80;;;18.10;87.30;;;16.82;99.20;95881.22;4904124;29;20063;-66
2021/09/16 04:00:14;;;;;;;10.07;5.80;;;18.10;87.20;;;16.80;99.17;95876.13;4948018;29;20031;-65
2021/09/16 04:02:39;;;;;;;8.50;5.53;;;18.10;87.30;;;16.79;99.05;95879.81;4927770;29;20040;-66
2021/09/16 04:05:05;;;;;;;10.52;5.75;;;18.10;87.40;;;16.77;99.89;95883.75;4932836;29;20228;-66
2021/09/16 04:07:31;;;;;;;8.70;5.75;;;18.10;87.40;;;16.76;99.09;95884.81;4945980;28;20087;-66
2021/09/16 04:09:57;;;;;;;10.82;6.53;;;18.00;87.50;;;16.71;99.48;95887.31;4934240;29;20044;-66
2021/09/16 04:12:23;;;;;;;10.10;6.18;;;17.90;87.70;;;16.67;99.41;95879.00;4932473;29;20031;-66
2021/09/16 04:14:48;;;;;;;9.32;6.32;;;17.90;87.90;;;16.66;99.86;95874.75;4927193;29;20075;-66
2021/09/16 04:17:14;;;;;;;7.18;5.60;;;17.90;87.90;;;16.65;99.50;95878.41;4935892;29;20051;-65
2021/09/16 04:19:40;;;;;;;10.82;6.60;;;17.90;88.00;;;16.64;99.99;95865.38;4951855;29;20035;-66
2021/09/16 04:22:05;;;;;;;9.52;6.55;;;18.00;87.80;;;16.64;99.51;95871.50;4948576;29;20128;-66
2021/09/16 04:24:31;;;;;;;7.85;6.07;;;17.90;87.90;;;16.63;100.00;95863.75;4932346;29;20032;-66
2021/09/16 04:26:57;;;;;;;7.97;6.22;;;18.00;87.90;;;16.64;99.80;95876.00;4901517;29;20131;-67
2021/09/16 04:29:23;;;;;;;8.48;6.50;;;17.90;87.80;;;16.62;100.00;95870.09;4917078;29;20098;-65
2021/09/16 04:31:48;;;;;;;9.95;6.95;;;17.90;88.00;;;16.62;99.65;95867.44;4931434;29;20087;-66
2021/09/16 04:34:14;;;;;;;10.50;6.40;;;17.80;88.00;;;16.62;100.00;95872.75;4933612;29;20108;-65
2021/09/16 04:36:40;;;;;;;10.35;6.13;;;17.90;87.80;;;16.63;100.00;95863.75;4936382;29;20105;-66
2021/09/16 04:39:05;;;;;;;10.65;6.38;;;17.90;87.60;;;16.63;99.71;95861.09;4932461;29;20463;-65
2021/09/16 04:41:31;;;;;;;9.75;6.40;;;18.00;87.50;;;16.63;99.71;95869.06;4916337;29;20115;-66
2021/09/16 04:43:57;;;;;;;8.80;6.38;;;17.90;87.50;;;16.63;99.42;95869.88;4935213;29;20467;-66
2021/09/16 04:46:23;;;;;;;7.80;6.22;;;17.90;87.50;;;16.63;99.67;95869.06;4951187;28;20035;-66
2021/09/16 04:48:49;;;;;;;9.18;6.35;;;17.90;87.50;;;16.62;99.36;95872.75;4951518;28;20418;-66
2021/09/16 04:51:15;;;;;;;8.18;6.53;;;18.00;87.40;;;16.63;99.69;95874.38;4951205;29;20032;-66
2021/09/16 04:53:40;;;;;;;7.85;6.05;;;18.00;87.30;;;16.64;99.75;95876.00;4935473;28;20035;-66
2021/09/16 04:56:06;;;;;;;10.52;6.35;;;18.10;87.20;;;16.63;100.00;95864.56;4951323;29;20050;-65
2021/09/16 04:58:32;;;;;;;8.77;6.55;;;18.10;87.10;;;16.66;99.69;95868.59;4935092;28;20566;-66
2021/09/16 05:00:58;;;;;;;12.55;7.15;;;18.10;87.00;;;16.69;99.79;95873.47;4935235;29;20090;-66
2021/09/16 05:03:23;;;;;;;8.45;6.97;;;18.10;86.90;;;16.68;99.90;95877.97;4932012;29;20036;-66
2021/09/16 05:05:49;;;;;;;8.98;6.20;;;18.10;86.90;;;16.66;99.02;95879.22;4916026;29;20503;-66
2021/09/16 05:08:15;;;;;;;9.02;6.15;;;18.00;87.20;;;16.66;99.27;95884.53;4916144;28;20044;-65
2021/09/16 05:10:42;;;;;;;9.25;6.70;;;18.00;87.00;;;16.66;99.68;95874.75;4916228;29;20514;-66
2021/09/16 05:13:08;;;;;;;8.55;6.05;;;18.10;87.00;;;16.69;99.39;95882.25;4916308;29;20118;-66
2021/09/16 05:15:34;;;;;;;8.63;6.18;;;18.10;86.90;;;16.71;99.82;95882.00;4939332;28;20447;-65
2021/09/16 05:18:00;;;;;;;9.27;6.30;;;18.10;87.00;;;16.71;99.02;95887.31;4947294;29;20412;-66
2021/09/16 05:20:25;;;;;;;9.00;6.35;;;18.10;86.80;;;16.72;99.36;95883.63;4948269;28;20063;-66
2021/09/16 05:22:51;;;;;;;6.82;5.40;;;18.10;86.70;;;16.70;99.24;95891.03;4934746;29;20067;-66
2021/09/16 05:25:17;;;;;;;9.73;5.80;;;18.00;86.90;;;16.70;99.36;95880.41;4935052;29;20549;-66
2021/09/16 05:27:43;;;;;;;7.85;6.07;;;18.10;86.80;;;16.70;99.19;95881.22;4950721;29;20040;-66
2021/09/16 05:30:09;;;;;;;6.75;5.20;;;18.10;86.80;;;16.69;98.91;95884.91;4950526;28;20070;-66
2021/09/16 05:32:35;;;;;;;9.43;5.35;;;18.10;86.70;;;16.72;99.37;95888.94;4934412;29;20059;-66
2021/09/16 05:35:01;;;;;;;9.38;6.10;;;18.10;86.60;;;16.71;99.10;95892.63;4935073;28;20518;-66
2021/09/16 05:37:28;;;;;;;10.25;6.07;;;18.10;86.60;;;16.69;99.92;95900.03;4934874;29;20031;-65
2021/09/16 05:39:54;;;;;;;7.47;5.63;;;18.00;86.90;;;16.64;99.67;95897.22;4946119;28;20027;-66
2021/09/16 05:42:20;;;;;;;8.10;5.05;;;17.90;87.30;;;16.62;99.45;95899.31;4930800;29;20140;-66
2021/09/16 05:44:46;;;;;;;7.00;5.47;;;17.90;87.40;;;16.60;100.00;95906.72;4931432;29;20028;-65
2021/09/16 05:47:11;;;;;;;10.90;6.15;;;17.80;87.60;;;16.54;99.50;95903.13;4925481;29;20031;-66
2021/09/16 05:49:37;;;;;;;9.20;5.97;;;17.70;87.90;;;16.54;100.00;95903.94;4922871;29;20052;-66
2021/09/16 05:52:03;;;;;;;7.72;5.50;;;17.80;87.90;;;16.57;100.00;95907.19;4921212;29;20038;-66
2021/09/16 05:54:29;;;;;;;11.20;5.93;;;17.90;87.50;;;16.56;99.60;95908.22;4930621;29;20036;-65
2021/09/16 05:56:55;;;;;;;12.93;6.38;;;17.90;87.60;;;16.58;99.73;95914.09;4915579;29;20102;-66
2021/09/16 05:59:20;;;;;;;9.77;6.32;;;17.90;87.50;;;16.57;99.88;95917.78;4931372;29;20384;-65
2021/09/16 06:01:46;;;;;;;9.85;5.93;;;17.90;87.60;;;16.56;100.00;95918.84;4899230;29;20125;-66
2021/09/16 06:04:12;;;;;;;9.43;6.15;;;17.90;87.60;;;16.57;100.00;95915.16;4952212;28;20046;-66
2021/09/16 06:06:37;;;;;;;7.03;4.63;;;17.90;87.70;;;16.59;100.00;95918.38;4950176;28;20036;-66
2021/09/16 06:09:03;;;;;;;11.32;6.60;;;17.90;87.70;;;16.57;99.87;95923.09;4934654;29;20042;-66
2021/09/16 06:11:29;;;;;;;8.75;5.95;;;17.90;87.80;;;16.59;100.00;95924.50;4934071;29;20063;-66
2021/09/16 06:13:55;;;;;;;13.25;6.88;;;18.00;87.60;;;16.60;100.00;95925.31;4934396;29;20035;-66
2021/09/16 06:16:22;;;;;;;8.75;6.07;;;18.00;87.70;;;16.61;100.00;95925.06;4934182;28;20131;-66
2021/09/16 06:18:48;;;;;;;6.30;5.50;;;18.00;87.80;;;16.64;100.00;95921.13;4933930;29;20027;-67
2021/09/16 06:21:14;;;;;;;7.55;6.25;;;18.10;87.60;;;16.68;100.00;95922.31;4946925;29;20071;-66
2021/09/16 06:23:39;;;;;;;7.03;6.03;;;18.10;87.50;;;16.69;100.00;95914.13;4931683;29;20089;-66
2021/09/16 06:26:05;;;;;;;8.48;6.10;;;18.10;87.10;;;16.73;100.00;95912.59;4950288;29;20490;-66
2021/09/16 06:28:31;;;;;;;10.40;6.25;;;18.10;86.90;;;16.74;100.00;95914.22;4934019;28;20082;-66
2021/09/16 06:30:57;;;;;;;9.32;5.85;;;18.10;86.80;;;16.77;100.00;95918.28;4933710;29;20058;-66
2021/09/16 06:33:22;;;;;;;8.63;6.45;;;18.20;86.90;;;16.82;100.00;95921.06;4934285;29;20051;-66
2021/09/16 06:35:48;;;;;;;9.85;5.95;;;18.30;86.80;;;16.83;100.00;95923.47;4934084;29;20094;-66
2021/09/16 06:38:14;;;;;;;12.15;6.30;;;18.30;86.80;;;16.85;100.00;95933.88;4933756;28;20042;-66
2021/09/16 06:40:40;;;;;;;6.57;5.70;;;18.30;87.10;;;16.87;100.00;95926.47;4933921;29;20027;-66
2021/09/16 06:43:05;;;;;;;9.63;5.63;;;18.30;86.70;;;16.89;100.00;95923.59;4951068;28;20091;-66
2021/09/16 06:45:31;;;;;;;6.93;5.43;;;18.40;86.70;;;16.93;100.00;95919.41;4934266;29;20027;-65
2021/09/16 06:47:57;;;;;;;9.98;5.72;;;18.40;86.40;;;16.93;99.87;95917.56;4934029;29;20039;-65
2021/09/16 06:50:22;;;;;;;8.02;5.68;;;18.40;86.40;;;17.00;100.00;95912.97;4949432;28;20043;-66
2021/09/16 06:52:48;;;;;;;9.40;5.68;;;18.60;86.30;;;17.07;99.86;95908.31;4933625;29;20039;-66
2021/09/16 06:55:14;;;;;;;6.95;5.32;;;18.70;86.10;;;17.13;99.39;95907.38;4935989;29;20066;-66
2021/09/16 06:57:40;;;;;;;7.15;5.22;;;18.70;85.60;;;17.14;99.49;95908.97;4953512;28;20050;-66
2021/09/16 07:00:06;;;;;;;11.52;5.53;;;18.60;85.80;;;17.15;99.67;95907.94;4937702;29;20043;-66
2021/09/16 07:02:32;;;;;;;7.82;5.65;;;18.60;86.00;;;17.17;98.87;95913.00;4936768;28;20118;-67
2021/09/16 07:04:58;;;;;;;7.45;5.05;;;18.60;86.30;;;17.20;99.25;95917.06;4953219;28;20039;-66
2021/09/16 07:07:23;;;;;;;8.82;5.60;;;18.70;86.20;;;17.24;99.31;95904.94;4953589;28;20118;-67
2021/09/16 07:09:49;;;;;;;7.30;5.32;;;18.80;86.10;;;17.29;99.85;95910.34;4952959;28;20104;-66
2021/09/16 07:12:15;;;;;;;6.50;5.57;;;18.90;85.70;;;17.34;98.77;95918.41;4936807;28;20422;-66
2021/09/16 07:14:41;;;;;;;8.02;5.70;;;19.00;85.50;;;17.38;99.61;95924.88;4953162;29;20498;-66
2021/09/16 07:17:07;;;;;;;10.60;6.43;;;19.00;85.70;;;17.43;99.70;95922.34;4953065;29;20193;-67
2021/09/16 07:19:32;;;;;;;8.68;5.90;;;19.00;85.80;;;17.46;99.28;95921.84;4953147;29;20499;-66
2021/09/16 07:21:58;;;;;;;10.32;5.75;;;19.10;85.70;;;17.54;100.00;95920.66;4936887;28;20035;-66
2021/09/16 07:24:24;;;;;;;10.13;5.68;;;19.10;85.70;;;17.62;99.70;95923.75;4968656;28;20039;-67
2021/09/16 07:26:50;;;;;;;7.40;4.97;;;19.30;85.20;;;17.74;99.77;95924.56;4949805;29;20533;-66
2021/09/16 07:29:20;;;;;;;7.70;5.47;;;19.50;84.60;;;17.88;99.36;95926.91;4934473;29;20114;-66
2021/09/16 07:31:47;;;;;;;7.78;5.22;;;19.70;84.10;;;17.96;98.37;95926.53;4917823;29;20035;-67
2021/09/16 07:34:14;;;;;;;8.65;5.10;;;19.80;83.70;;;18.06;97.97;95935.50;4917700;29;20044;-66
2021/09/16 07:36:40;;;;;;;7.22;5.75;;;20.00;83.30;;;18.16;98.59;95939.41;4918223;29;20040;-66
2021/09/16 07:39:06;;;;;;;9.45;5.28;;;20.00;83.30;;;18.21;97.53;95939.47;4965877;28;20043;-66
2021/09/16 07:41:32;;;;;;;10.82;5.80;;;20.00;82.80;;;18.30;96.68;95943.34;4935216;29;20036;-67
2021/09/16 07:43:57;;;;;;;7.50;4.97;;;20.10;82.70;;;18.39;97.63;95933.13;4949575;29;20060;-66
2021/09/16 07:46:24;;;;;;;9.95;5.65;;;20.30;82.30;;;18.47;96.93;95943.38;4949022;29;20023;-67
2021/09/16 07:48:49;;;;;;;11.00;6.18;;;20.40;82.30;;;18.58;96.37;95937.97;4949281;29;20028;-66
2021/09/16 07:51:15;;;;;;;9.73;5.95;;;20.70;81.50;;;18.73;96.79;95932.06;4933164;29;20046;-67
2021/09/16 07:53:41;;;;;;;12.07;5.72;;;20.90;80.90;;;18.88;96.72;95934.16;4922027;29;20499;-67
2021/09/16 07:56:07;;;;;;;9.50;5.32;;;21.10;80.20;;;19.03;95.05;95930.91;4936506;28;20043;-67
2021/09/16 07:58:32;;;;;;;7.75;3.92;;;21.30;79.00;;;19.17;94.85;95932.16;4936215;28;20085;-66
2021/09/16 08:00:58;;;;;;;9.32;5.05;;;21.40;79.30;;;19.30;94.90;95942.47;4936130;29;20526;-66
2021/09/16 08:03:24;;;;;;;10.38;5.57;;;21.40;78.90;;;19.43;93.83;95939.41;4951204;29;20035;-67
2021/09/16 08:05:50;;;;;;;8.52;5.20;;;21.60;78.50;;;19.57;93.56;95945.22;4952119;28;20035;-67
2021/09/16 08:08:15;;;;;;;14.23;5.72;;;21.60;78.30;;;19.71;93.65;95945.66;4951687;28;20049;-67
2021/09/16 08:10:41;;;;;;;6.75;5.10;;;21.80;77.80;;;19.80;92.35;95939.63;4936165;29;20086;-67
2021/09/16 08:13:07;;;;;;;9.77;6.00;;;21.80;76.90;;;19.86;91.21;95932.47;4952339;29;20063;-67
2021/09/16 08:15:32;;;;;;;9.30;5.57;;;21.80;76.70;;;20.00;91.17;95941.69;4953211;28;20043;-66
2021/09/16 08:17:59;;;;;;;9.77;5.53;;;22.20;76.60;;;20.09;91.82;95924.16;4936280;29;20035;-67
2021/09/16 08:20:25;;;;;;;7.10;4.88;;;22.20;76.70;;;20.26;91.87;95929.38;4951272;28;20395;-67
2021/09/16 08:22:51;;;;;;;6.65;5.10;;;22.50;77.20;;;20.29;90.28;95928.06;4935825;28;20035;-66
2021/09/16 08:25:17;;;;;;;8.07;5.50;;;22.20;75.80;;;20.36;89.62;95931.31;4934525;29;20079;-67
2021/09/16 08:27:43;;;;;;;7.80;5.65;;;22.30;76.00;;;20.38;89.66;95932.72;4937230;29;20102;-67
2021/09/16 08:30:10;;;;;;;7.03;5.38;;;22.30;76.30;;;20.44;89.86;95931.72;4935891;29;20035;-67
2021/09/16 08:32:35;;;;;;;7.05;4.93;;;22.40;76.80;;;20.47;89.43;95930.38;4919434;29;20127;-67
2021/09/16 08:35:03;;;;;;;8.05;5.20;;;22.20;76.70;;;20.50;88.72;95929.88;4970531;23;20097;-66
2021/09/16 08:37:29;;;;;;;8.35;5.40;;;22.30;75.90;;;20.49;88.86;95928.25;4946441;29;20589;-65
2021/09/16 08:39:55;;;;;;;9.80;5.70;;;22.20;76.30;;;20.49;88.34;95928.25;4948439;29;20039;-66
2021/09/16 08:42:24;;;;;;;8.63;5.65;;;22.30;75.70;;;20.50;87.95;95929.88;4931827;29;20068;-65
2021/09/16 08:44:50;;;;;;;10.55;5.60;;;22.20;76.10;;;20.47;87.65;95935.72;4948583;29;20024;-66
2021/09/16 08:47:15;;;;;;;7.85;5.45;;;22.20;76.00;;;20.48;87.52;95934.66;4932591;29;20594;-65
2021/09/16 08:49:41;;;;;;;11.57;5.65;;;22.20;76.20;;;20.50;87.53;95945.91;4948616;29;20047;-66
2021/09/16 08:52:07;;;;;;;9.27;6.40;;;22.10;76.60;;;20.50;87.60;95937.91;4932489;29;20067;-66
2021/09/16 08:54:33;;;;;;;8.63;5.43;;;22.10;76.50;;;20.47;87.44;95941.06;4947826;29;20038;-66
2021/09/16 08:56:59;;;;;;;6.25;5.30;;;22.10;76.10;;;20.45;87.52;95932.50;4916768;29;20111;-66
2021/09/16 08:59:25;;;;;;;7.85;5.60;;;22.10;76.60;;;20.43;87.41;95937.31;4932011;29;20131;-65
2021/09/16 09:01:51;;;;;;;10.10;6.32;;;22.00;76.90;;;20.39;87.58;95930.84;4932426;29;20110;-65
2021/09/16 09:04:17;;;;;;;9.30;5.75;;;22.00;77.10;;;20.35;87.60;95932.38;4947598;29;20031;-66
2021/09/16 09:06:43;;;;;;;7.47;5.55;;;21.90;76.80;;;20.30;87.73;95929.69;4916580;29;20035;-66
2021/09/16 09:09:19;;;;;;;8.40;5.57;;;21.80;77.20;;;20.28;86.95;95931.81;4932476;29;20032;-66
2021/09/16 09:12:12;;;;;;;15.75;9.73;;;22.00;76.90;;;20.36;87.29;95939.34;4932184;29;20042;-66
2021/09/16 09:14:46;;;;;;;8.68;5.18;;;22.30;76.20;;;20.52;87.13;95932.28;4933368;29;20046;-66
2021/09/16 09:17:26;;;;;;;5.70;4.68;;;22.70;75.10;;;20.80;85.89;95919.41;4961803;28;20075;-66
2021/09/16 09:19:54;;;;;;;5.80;4.38;;;23.20;73.80;;;21.13;86.56;95927.34;4963066;28;20035;-66
2021/09/16 09:22:31;;;;;;;8.85;4.65;;;23.80;71.40;;;21.56;85.17;95916.34;4965610;28;20491;-66
2021/09/16 09:25:11;;;;;;;5.90;4.13;;;24.60;69.50;;;22.02;83.22;95924.50;4937065;29;20031;-66
2021/09/16 09:27:39;;;;;;;8.65;4.43;;;24.80;68.40;;;22.17;83.44;95931.75;4963830;28;20171;-65
2021/09/16 09:30:16;;;;;;;7.30;3.83;;;24.50;68.30;;;22.30;80.68;95921.34;4932029;29;20126;-64
2021/09/16 09:33:01;;;;;;;7.07;4.18;;;24.60;68.90;;;22.32;79.72;95915.72;4941170;28;20063;-65
2021/09/16 09:35:39;;;;;;;9.00;4.13;;;24.30;68.60;;;22.36;80.88;95918.66;4966499;28;20054;-64
2021/09/16 09:38:21;;;;;;;5.78;4.05;;;24.30;68.30;;;22.37;78.86;95923.75;4936572;29;20043;-66
2021/09/16 09:40:57;;;;;;;6.80;4.32;;;24.50;67.20;;;22.51;78.72;95922.16;4920000;29;20469;-65
2021/09/16 09:43:37;;;;;;;6.85;4.72;;;24.70;67.00;;;22.55;79.13;95922.41;4929247;29;20028;-65
2021/09/16 09:46:10;;;;;;;7.32;4.55;;;24.50;68.30;;;22.45;77.83;95911.72;4932207;29;20039;-65
2021/09/16 09:48:42;;;;;;;7.13;4.00;;;24.10;67.90;;;22.39;78.58;95913.56;4932643;29;20032;-66
2021/09/16 09:51:08;;;;;;;5.60;3.55;;;24.10;68.80;;;22.37;79.50;95905.00;4916140;29;20040;-66
2021/09/16 09:53:42;;;;;;;8.23;3.63;;;24.20;68.30;;;22.30;77.74;95899.09;4945761;28;20050;-65
2021/09/16 09:56:19;;;;;;;7.15;3.60;;;24.10;68.30;;;22.27;77.60;95899.63;4931175;29;20044;-65
2021/09/16 09:58:44;;;;;;;9.40;3.75;;;24.10;67.70;;;22.27;78.59;95899.63;4915689;29;20107;-65
2021/09/16 10:01:33;;;;;;;9.27;3.47;;;24.30;67.80;;;22.42;76.34;95893.50;4915707;29;20114;-65
2021/09/16 10:03:59;;;;;;;6.55;3.67;;;24.70;66.00;;;22.65;78.55;95897.50;4916376;29;20035;-65
2021/09/16 10:06:35;;;;;;;8.18;3.40;;;25.10;65.30;;;22.83;76.29;95896.94;4915666;29;20038;-66
2021/09/16 10:09:09;;;;;;;11.25;8.93;;;25.20;64.40;;;23.10;75.70;95896.63;4902835;29;20035;-66
2021/09/16 10:11:53;;;;;;;5.20;3.47;;;26.10;63.00;;;23.70;74.79;95889.41;4951714;28;20043;-67
2021/09/16 10:14:19;;;;;;;6.30;3.55;;;27.30;58.10;;;24.28;76.04;95885.03;4934296;28;20066;-67
2021/09/16 10:16:45;;;;;;;5.68;3.25;;;27.90;57.50;;;24.80;75.02;95891.56;4919063;29;20043;-65